createdAt,value
2018-07-24T00:00:08.410Z,88.90
2018-07-24T00:02:36.398Z,88.10
2018-07-24T00:05:04.414Z,89.10
2018-07-24T00:07:32.207Z,89.10
2018-07-24T00:10:02.256Z,90.10
2018-07-24T00:12:30.327Z,90.00
2018-07-24T00:14:58.118Z,89.90
2018-07-24T00:17:25.907Z,90.40
2018-07-24T00:19:53.692Z,91.10
2018-07-24T00:22:21.723Z,91.20
2018-07-24T00:24:49.606Z,90.90
2018-07-24T00:27:17.462Z,90.80
2018-07-24T00:29:45.298Z,91.30
2018-07-24T00:32:13.103Z,91.50
2018-07-24T00:34:40.999Z,92.00
2018-07-24T00:39:36.542Z,92.30
2018-07-24T00:42:04.538Z,92.50
2018-07-24T00:44:32.358Z,92.60
2018-07-24T00:47:00.108Z,92.40
2018-07-24T00:49:27.968Z,92.80
2018-07-24T00:51:55.731Z,92.90
2018-07-24T00:54:23.467Z,92.90
2018-07-24T00:56:51.247Z,93.10
2018-07-24T00:59:19.067Z,93.40
2018-07-24T01:01:46.879Z,92.90
2018-07-24T01:04:14.642Z,93.40
2018-07-24T01:06:42.439Z,93.20
2018-07-24T01:09:10.898Z,93.10
2018-07-24T01:11:38.971Z,92.70
2018-07-24T01:16:34.781Z,93.30
2018-07-24T01:19:02.599Z,93.20
2018-07-24T01:21:30.395Z,92.90
2018-07-24T01:23:58.252Z,93.30
2018-07-24T01:26:25.998Z,93.30
2018-07-24T01:28:53.863Z,93.60
2018-07-24T01:31:21.674Z,93.30
2018-07-24T01:33:49.619Z,93.30
2018-07-24T01:36:17.448Z,93.30
2018-07-24T01:38:45.319Z,93.80
2018-07-24T01:41:13.089Z,93.50
2018-07-24T01:43:40.885Z,93.30
2018-07-24T01:46:08.679Z,93.90
2018-07-24T01:48:36.526Z,93.60
2018-07-24T01:51:04.344Z,93.30
2018-07-24T01:53:32.125Z,93.90
2018-07-24T01:55:59.996Z,93.60
2018-07-24T01:58:27.789Z,93.30
2018-07-24T02:01:00.276Z,93.60
2018-07-24T02:03:27.987Z,93.50
2018-07-24T02:05:55.803Z,93.80
2018-07-24T02:08:23.591Z,93.80
2018-07-24T02:13:19.251Z,94.10
2018-07-24T02:15:47.031Z,92.20
2018-07-24T02:20:42.993Z,93.10
2018-07-24T02:23:10.951Z,93.70
2018-07-24T02:25:38.748Z,94.50
2018-07-24T02:28:07.303Z,94.40
2018-07-24T02:33:03.255Z,94.50
2018-07-24T02:35:31.081Z,94.00
2018-07-24T02:37:58.880Z,94.50
2018-07-24T02:40:26.657Z,93.50
2018-07-24T02:42:54.453Z,93.70
2018-07-24T02:45:22.255Z,94.70
2018-07-24T02:47:50.045Z,94.70
2018-07-24T02:50:17.789Z,94.80
2018-07-24T02:52:45.599Z,94.60
2018-07-24T02:55:13.422Z,94.80
2018-07-24T02:57:41.216Z,95.50
2018-07-24T03:00:09.006Z,95.20
2018-07-24T03:02:36.806Z,95.50
2018-07-24T03:05:05.200Z,95.70
2018-07-24T03:07:33.039Z,95.70
2018-07-24T03:10:00.860Z,95.80
2018-07-24T03:12:28.599Z,96.00
2018-07-24T03:17:24.167Z,96.30
2018-07-24T03:19:52.064Z,95.70
2018-07-24T03:22:19.855Z,96.30
2018-07-24T03:24:47.596Z,96.70
2018-07-24T03:27:15.461Z,95.90
2018-07-24T03:29:43.220Z,96.60
2018-07-24T03:32:11.004Z,94.60
2018-07-24T03:34:38.806Z,96.60
2018-07-24T03:37:06.649Z,96.90
2018-07-24T03:39:34.566Z,96.30
2018-07-24T03:42:02.274Z,96.50
2018-07-24T03:44:30.078Z,95.80
2018-07-24T03:46:57.861Z,96.40
2018-07-24T03:49:25.647Z,96.50
2018-07-24T03:51:53.467Z,96.90
2018-07-24T03:54:21.303Z,97.30
2018-07-24T03:56:49.092Z,97.10
2018-07-24T03:59:16.803Z,97.50
2018-07-24T04:01:44.623Z,97.40
2018-07-24T04:04:12.427Z,97.10
2018-07-24T04:06:40.232Z,97.30
2018-07-24T04:09:09.346Z,97.60
2018-07-24T04:11:37.500Z,97.10
2018-07-24T04:14:05.317Z,97.10
2018-07-24T04:16:33.147Z,96.50
2018-07-24T04:19:00.939Z,97.70
2018-07-24T04:21:28.756Z,97.50
2018-07-24T04:23:56.635Z,97.40
2018-07-24T04:26:24.471Z,97.20
2018-07-24T04:28:52.214Z,97.30
2018-07-24T04:33:47.768Z,97.10
2018-07-24T04:36:15.621Z,97.10
2018-07-24T04:38:43.464Z,96.90
2018-07-24T04:41:11.243Z,96.60
2018-07-24T04:43:38.974Z,95.40
2018-07-24T04:46:06.791Z,95.90
2018-07-24T04:48:34.611Z,95.50
2018-07-24T04:51:02.449Z,95.80
2018-07-24T04:53:30.225Z,95.50
2018-07-24T04:55:58.167Z,94.90
2018-07-24T04:58:25.947Z,95.00
2018-07-24T05:00:53.943Z,94.80
2018-07-24T05:03:21.820Z,94.40
2018-07-24T05:05:49.483Z,94.40
2018-07-24T05:08:17.295Z,94.20
2018-07-24T05:10:45.105Z,94.10
2018-07-24T05:13:13.003Z,93.80
2018-07-24T05:15:40.736Z,93.60
2018-07-24T05:18:08.508Z,92.80
2018-07-24T05:20:36.272Z,92.20
2018-07-24T05:23:04.132Z,90.90
2018-07-24T05:25:31.860Z,89.60
2018-07-24T05:27:59.659Z,85.80
2018-07-24T05:30:27.467Z,81.80
2018-07-24T05:32:55.251Z,78.80
2018-07-24T05:35:23.051Z,75.50
2018-07-24T05:37:50.790Z,73.10
2018-07-24T05:40:18.559Z,71.40
2018-07-24T05:42:46.372Z,72.10
2018-07-24T05:45:14.199Z,73.20
2018-07-24T05:47:41.979Z,73.70
2018-07-24T05:52:37.608Z,75.70
2018-07-24T05:55:05.517Z,74.60
2018-07-24T05:57:33.267Z,74.10
2018-07-24T06:00:01.097Z,72.40
2018-07-24T06:02:28.924Z,69.60
2018-07-24T06:04:56.744Z,69.30
2018-07-24T06:07:24.575Z,68.50
2018-07-24T06:09:52.340Z,67.70
2018-07-24T06:12:20.221Z,66.60
2018-07-24T06:14:48.039Z,65.90
2018-07-24T06:17:15.820Z,66.20
2018-07-24T06:19:43.623Z,67.40
2018-07-24T06:22:11.433Z,66.00
2018-07-24T06:24:40.127Z,66.80
2018-07-24T06:27:08.468Z,66.90
2018-07-24T06:29:36.416Z,66.20
2018-07-24T06:34:32.336Z,65.80
2018-07-24T06:37:00.163Z,67.00
2018-07-24T06:39:27.984Z,65.60
2018-07-24T06:41:55.711Z,65.20
2018-07-24T06:44:23.496Z,65.50
2018-07-24T06:46:51.344Z,65.20
2018-07-24T06:49:19.192Z,64.70
2018-07-24T06:51:47.141Z,64.10
2018-07-24T06:54:14.876Z,64.50
2018-07-24T06:56:42.795Z,64.30
2018-07-24T06:59:10.511Z,64.90
2018-07-24T07:01:38.324Z,64.30
2018-07-24T07:04:06.187Z,63.70
2018-07-24T07:06:34.060Z,63.00
2018-07-24T07:09:03.800Z,61.20
2018-07-24T07:13:59.980Z,60.00
2018-07-24T07:16:27.796Z,59.90
2018-07-24T07:18:55.895Z,59.90
2018-07-24T07:21:23.771Z,61.00
2018-07-24T07:23:51.540Z,59.90
2018-07-24T07:26:19.551Z,60.40
2018-07-24T07:28:47.331Z,60.10
2018-07-24T07:31:15.287Z,59.20
2018-07-24T07:33:43.147Z,58.40
2018-07-24T07:36:11.048Z,58.90
2018-07-24T07:38:38.939Z,58.90
2018-07-24T07:41:06.684Z,59.70
2018-07-24T07:43:34.560Z,57.50
2018-07-24T07:46:02.463Z,56.60
2018-07-24T07:48:30.294Z,56.70
2018-07-24T07:50:58.135Z,56.50
2018-07-24T07:53:25.884Z,56.50
2018-07-24T07:55:53.688Z,56.20
2018-07-24T07:58:21.533Z,55.70
2018-07-24T08:00:49.264Z,56.90
2018-07-24T08:03:17.039Z,55.00
2018-07-24T08:05:44.799Z,55.90
2018-07-24T08:08:12.585Z,54.80
2018-07-24T08:10:40.347Z,54.40
2018-07-24T08:13:08.148Z,54.80
2018-07-24T08:15:35.892Z,54.30
2018-07-24T08:18:03.727Z,54.60
2018-07-24T08:20:31.527Z,53.40
2018-07-24T08:22:59.334Z,54.00
2018-07-24T08:25:27.081Z,53.50
2018-07-24T08:27:54.946Z,52.90
2018-07-24T08:30:22.698Z,51.90
2018-07-24T08:32:50.611Z,52.50
2018-07-24T08:35:18.536Z,52.40
2018-07-24T08:37:46.285Z,52.00
2018-07-24T08:40:14.075Z,52.30
2018-07-24T08:42:41.840Z,52.40
2018-07-24T08:45:09.664Z,52.70
2018-07-24T08:47:37.451Z,52.60
2018-07-24T08:50:05.617Z,50.30
2018-07-24T08:52:33.499Z,49.70
2018-07-24T08:55:01.676Z,50.00
2018-07-24T08:57:29.220Z,49.90
2018-07-24T08:59:58.585Z,50.90
2018-07-24T09:02:33.821Z,49.40
2018-07-24T09:05:11.843Z,49.90
2018-07-24T09:07:39.844Z,48.20
2018-07-24T09:10:08.012Z,49.10
2018-07-24T09:12:36.392Z,48.90
2018-07-24T09:15:04.697Z,48.10
2018-07-24T09:17:32.464Z,47.50
2018-07-24T09:20:00.421Z,48.20
2018-07-24T09:22:28.447Z,47.70
2018-07-24T09:24:56.273Z,49.00
2018-07-24T09:27:24.087Z,48.30
2018-07-24T09:29:51.909Z,47.70
2018-07-24T09:32:19.744Z,46.90
2018-07-24T09:34:47.595Z,48.30
2018-07-24T09:37:15.312Z,48.00
2018-07-24T09:39:43.155Z,47.70
2018-07-24T09:42:11.024Z,46.30
2018-07-24T09:44:38.824Z,46.60
2018-07-24T09:47:06.791Z,45.50
2018-07-24T09:49:34.544Z,44.30
2018-07-24T09:52:02.272Z,42.50
2018-07-24T09:54:30.076Z,42.70
2018-07-24T09:56:57.908Z,43.50
2018-07-24T09:59:25.692Z,43.00
2018-07-24T10:01:53.470Z,43.60
2018-07-24T10:04:21.272Z,43.30
2018-07-24T10:06:49.067Z,42.50
2018-07-24T10:09:16.852Z,40.80
2018-07-24T10:11:44.633Z,40.00
2018-07-24T10:14:12.434Z,38.20
2018-07-24T10:16:40.363Z,39.20
2018-07-24T10:19:08.028Z,37.10
2018-07-24T10:21:35.881Z,36.00
2018-07-24T10:24:03.752Z,37.40
2018-07-24T10:26:31.543Z,36.10
2018-07-24T10:28:59.358Z,37.50
2018-07-24T10:31:27.156Z,37.00
2018-07-24T10:33:54.911Z,35.80
2018-07-24T10:36:22.766Z,36.40
2018-07-24T10:38:50.533Z,37.50
2018-07-24T10:41:19.415Z,36.20
2018-07-24T10:46:15.208Z,33.80
2018-07-24T10:48:43.424Z,31.10
2018-07-24T10:51:11.309Z,30.50
2018-07-24T10:53:39.656Z,30.90
2018-07-24T10:56:07.532Z,28.50
2018-07-24T10:58:36.339Z,29.20
2018-07-24T11:01:04.239Z,28.00
2018-07-24T11:03:32.370Z,27.60
2018-07-24T11:06:00.213Z,27.70
2018-07-24T11:08:28.057Z,27.50
2018-07-24T11:10:55.855Z,27.60
2018-07-24T11:13:23.620Z,27.30
2018-07-24T11:15:51.424Z,26.60
2018-07-24T11:18:19.211Z,26.30
2018-07-24T11:20:46.997Z,26.30
2018-07-24T11:23:14.976Z,26.70
2018-07-24T11:25:42.619Z,24.60
2018-07-24T11:28:10.339Z,24.30
2018-07-24T11:30:38.224Z,24.50
2018-07-24T11:33:06.113Z,23.80
2018-07-24T11:35:33.998Z,24.70
2018-07-24T11:38:01.703Z,24.00
2018-07-24T11:40:29.515Z,23.70
2018-07-24T11:42:57.335Z,24.10
2018-07-24T11:45:25.199Z,24.10
2018-07-24T11:47:52.979Z,24.10
2018-07-24T11:50:20.815Z,23.40
2018-07-24T11:52:48.626Z,23.50
2018-07-24T11:55:16.475Z,23.70
2018-07-24T11:57:44.267Z,22.90
2018-07-24T12:00:12.064Z,23.50
2018-07-24T12:02:39.960Z,23.70
2018-07-24T12:05:07.745Z,22.80
2018-07-24T12:07:35.536Z,23.70
2018-07-24T12:10:03.889Z,23.20
2018-07-24T12:12:31.684Z,23.70
2018-07-24T12:14:59.456Z,23.40
2018-07-24T12:17:27.267Z,23.20
2018-07-24T12:19:55.088Z,23.20
2018-07-24T12:22:22.962Z,23.00
2018-07-24T12:24:50.830Z,22.30
2018-07-24T12:27:19.041Z,22.30
2018-07-24T12:29:47.141Z,23.30
2018-07-24T12:32:14.977Z,23.20
2018-07-24T12:34:42.863Z,23.10
2018-07-24T12:37:11.242Z,23.60
2018-07-24T12:39:39.094Z,23.00
2018-07-24T12:42:07.126Z,23.40
2018-07-24T12:44:34.945Z,24.40
2018-07-24T12:47:02.762Z,24.90
2018-07-24T12:49:30.586Z,24.90
2018-07-24T12:51:58.387Z,24.50
2018-07-24T12:54:26.263Z,24.70
2018-07-24T12:56:54.144Z,24.80
2018-07-24T12:59:22.213Z,24.80
2018-07-24T13:01:50.016Z,24.90
2018-07-24T13:04:17.846Z,23.70
2018-07-24T13:06:45.554Z,23.80
2018-07-24T13:09:13.272Z,24.00
2018-07-24T13:11:41.114Z,24.50
2018-07-24T13:14:09.083Z,24.50
2018-07-24T13:16:37.006Z,25.20
2018-07-24T13:19:04.863Z,25.30
2018-07-24T13:21:32.718Z,26.10
2018-07-24T13:24:00.562Z,25.10
2018-07-24T13:26:28.400Z,24.70
2018-07-24T13:28:56.179Z,24.20
2018-07-24T13:31:23.971Z,24.90
2018-07-24T13:33:51.752Z,25.00
2018-07-24T13:36:19.504Z,25.40
2018-07-24T13:38:47.303Z,25.20
2018-07-24T13:41:15.147Z,26.10
2018-07-24T13:43:42.967Z,24.90
2018-07-24T13:48:38.583Z,25.00
2018-07-24T13:51:06.380Z,26.20
2018-07-24T13:53:34.131Z,27.40
2018-07-24T13:56:01.917Z,26.70
2018-07-24T14:00:57.604Z,25.60
2018-07-24T14:03:25.424Z,25.80
2018-07-24T14:05:53.219Z,27.70
2018-07-24T14:08:21.046Z,26.30
2018-07-24T14:10:48.772Z,26.80
2018-07-24T14:13:16.607Z,26.80
2018-07-24T14:15:44.379Z,27.50
2018-07-24T14:18:12.227Z,28.00
2018-07-24T14:20:40.024Z,28.30
2018-07-24T14:23:07.871Z,28.10
2018-07-24T14:25:35.707Z,29.20
2018-07-24T14:28:03.531Z,27.40
2018-07-24T14:30:31.355Z,28.00
2018-07-24T14:32:59.150Z,28.80
2018-07-24T14:35:26.996Z,28.50
2018-07-24T14:37:54.792Z,28.80
2018-07-24T14:40:22.627Z,27.60
2018-07-24T14:42:50.368Z,28.20
2018-07-24T14:45:18.151Z,28.60
2018-07-24T14:47:46.022Z,28.90
2018-07-24T14:50:13.798Z,30.10
2018-07-24T14:52:41.695Z,28.20
2018-07-24T14:55:10.139Z,28.90
2018-07-24T14:57:37.975Z,28.20
2018-07-24T15:00:07.380Z,29.80
2018-07-24T15:02:35.277Z,30.30
2018-07-24T15:05:03.290Z,31.20
2018-07-24T15:07:34.787Z,30.30
2018-07-24T15:10:02.855Z,29.70
2018-07-24T15:12:30.651Z,30.90
2018-07-24T15:14:58.927Z,30.90
2018-07-24T15:19:54.858Z,30.50
2018-07-24T15:22:22.807Z,29.10
2018-07-24T15:24:50.600Z,29.50
2018-07-24T15:27:18.423Z,30.80
2018-07-24T15:30:04.638Z,30.40
2018-07-24T15:32:34.207Z,30.80
2018-07-24T15:35:05.488Z,31.20
2018-07-24T15:37:33.352Z,30.40
2018-07-24T15:40:01.187Z,30.20
2018-07-24T15:42:28.952Z,31.20
2018-07-24T15:44:56.796Z,30.60
2018-07-24T15:47:24.540Z,30.70
2018-07-24T15:49:54.061Z,31.00
2018-07-24T15:52:22.297Z,30.60
2018-07-24T15:54:50.303Z,30.30
2018-07-24T15:57:18.135Z,30.10
2018-07-24T15:59:46.220Z,29.70
2018-07-24T16:02:14.008Z,29.50
2018-07-24T16:04:42.019Z,31.30
2018-07-24T16:07:10.771Z,29.70
2018-07-24T16:09:42.448Z,30.10
2018-07-24T16:12:12.766Z,31.60
2018-07-24T16:14:40.575Z,29.80
2018-07-24T16:17:08.439Z,30.80
2018-07-24T16:19:36.462Z,30.20
2018-07-24T16:22:04.319Z,31.60
2018-07-24T16:24:32.604Z,29.60
2018-07-24T16:27:00.532Z,30.60
2018-07-24T16:29:28.428Z,31.30
2018-07-24T16:34:24.084Z,30.60
2018-07-24T16:36:51.871Z,30.10
2018-07-24T16:39:19.625Z,31.10
2018-07-24T16:41:47.499Z,31.80
2018-07-24T16:46:43.301Z,32.50
2018-07-24T16:49:11.127Z,31.30
2018-07-24T16:51:38.963Z,31.50
2018-07-24T16:54:06.776Z,32.20
2018-07-24T16:56:34.571Z,31.20
2018-07-24T16:59:02.399Z,32.90
2018-07-24T17:01:30.284Z,33.80
2018-07-24T17:03:58.126Z,30.60
2018-07-24T17:06:25.927Z,30.80
2018-07-24T17:08:53.727Z,32.80
2018-07-24T17:11:21.731Z,32.90
2018-07-24T17:13:49.557Z,31.70
2018-07-24T17:16:17.604Z,31.80
2018-07-24T17:18:45.384Z,32.20
2018-07-24T17:21:13.232Z,32.60
2018-07-24T17:23:46.849Z,32.40
2018-07-24T17:26:14.703Z,32.50
2018-07-24T17:28:42.530Z,33.10
2018-07-24T17:31:10.270Z,33.30
2018-07-24T17:33:38.151Z,33.10
2018-07-24T17:36:06.030Z,33.00
2018-07-24T17:38:33.798Z,33.30
2018-07-24T17:41:01.580Z,33.10
2018-07-24T17:43:29.343Z,33.50
2018-07-24T17:45:57.469Z,33.70
2018-07-24T17:48:25.443Z,34.10
2018-07-24T17:50:53.064Z,34.30
2018-07-24T17:53:20.878Z,34.20
2018-07-24T17:55:48.655Z,33.30
2018-07-24T17:58:16.857Z,33.60
2018-07-24T18:00:44.642Z,33.80
2018-07-24T18:03:12.429Z,34.30
2018-07-24T18:05:40.171Z,34.60
2018-07-24T18:08:08.023Z,33.90
2018-07-24T18:10:36.951Z,35.00
2018-07-24T18:13:07.908Z,34.80
2018-07-24T18:15:35.759Z,34.70
2018-07-24T18:18:03.495Z,35.40
2018-07-24T18:20:31.370Z,35.90
2018-07-24T18:22:59.701Z,36.30
2018-07-24T18:25:27.489Z,36.70
2018-07-24T18:27:55.356Z,37.10
2018-07-24T18:32:50.927Z,37.50
2018-07-24T18:35:18.864Z,37.40
2018-07-24T18:37:48.484Z,37.60
2018-07-24T18:40:16.371Z,37.80
2018-07-24T18:42:44.189Z,38.10
2018-07-24T18:45:11.987Z,38.20
2018-07-24T18:47:39.750Z,38.60
2018-07-24T18:50:07.600Z,38.60
2018-07-24T18:52:35.311Z,39.00
2018-07-24T18:55:03.086Z,39.40
2018-07-24T18:57:30.910Z,40.00
2018-07-24T18:59:58.851Z,39.90
2018-07-24T19:02:26.714Z,39.90
2018-07-24T19:04:54.504Z,39.80
2018-07-24T19:07:23.366Z,39.70
2018-07-24T19:09:51.163Z,40.30
2018-07-24T19:12:18.997Z,40.30
2018-07-24T19:14:46.779Z,40.90
2018-07-24T19:17:14.623Z,41.00
2018-07-24T19:19:42.367Z,41.40
2018-07-24T19:22:10.244Z,41.90
2018-07-24T19:24:38.003Z,42.60
2018-07-24T19:27:05.884Z,43.00
2018-07-24T19:29:33.730Z,44.40
2018-07-24T19:32:01.521Z,44.20
2018-07-24T19:34:29.385Z,44.10
2018-07-24T19:36:57.231Z,44.10
2018-07-24T19:41:52.875Z,44.90
2018-07-24T19:44:20.627Z,45.40
2018-07-24T19:46:48.456Z,46.80
2018-07-24T19:49:16.265Z,48.00
2018-07-24T19:51:44.067Z,48.40
2018-07-24T19:56:39.724Z,49.20
2018-07-24T19:59:07.550Z,49.40
2018-07-24T20:01:35.339Z,50.30
2018-07-24T20:04:03.155Z,51.00
2018-07-24T20:06:31.099Z,51.00
2018-07-24T20:09:00.590Z,50.10
2018-07-24T20:11:28.527Z,50.80
2018-07-24T20:13:58.887Z,51.00
2018-07-24T20:18:55.114Z,53.60
2018-07-24T20:21:24.541Z,54.00
2018-07-24T20:26:29.279Z,53.70
2018-07-24T20:28:59.020Z,54.50
2018-07-24T20:31:29.812Z,54.80
2018-07-24T20:34:05.020Z,56.40
2018-07-24T20:36:32.789Z,57.50
2018-07-24T20:39:07.489Z,57.60
2018-07-24T20:41:35.817Z,58.00
2018-07-24T20:44:03.737Z,56.60
2018-07-24T20:46:37.377Z,56.90
2018-07-24T20:49:05.505Z,57.30
2018-07-24T20:51:33.415Z,56.90
2018-07-24T20:54:02.813Z,56.80
2018-07-24T20:56:30.594Z,57.00
2018-07-24T20:58:58.977Z,57.80
2018-07-24T21:01:27.833Z,57.60
2018-07-24T21:03:56.336Z,57.80
2018-07-24T21:06:28.568Z,59.20
2018-07-24T21:08:57.755Z,59.10
2018-07-24T21:11:28.359Z,59.10
2018-07-24T21:13:59.088Z,59.90
2018-07-24T21:16:27.544Z,59.00
2018-07-24T21:19:03.125Z,60.60
2018-07-24T21:21:34.550Z,60.90
2018-07-24T21:24:07.423Z,62.30
2018-07-24T21:26:37.616Z,62.90
2018-07-24T21:29:07.130Z,64.90
2018-07-24T21:31:35.519Z,65.40
2018-07-24T21:34:07.524Z,66.60
2018-07-24T21:36:36.731Z,66.80
2018-07-24T21:39:07.999Z,68.00
2018-07-24T21:41:35.827Z,68.30
2018-07-24T21:44:06.280Z,68.50
2018-07-24T21:46:34.249Z,68.90
2018-07-24T21:49:02.331Z,68.20
2018-07-24T21:51:30.095Z,68.00
2018-07-24T21:53:57.883Z,66.60
2018-07-24T21:56:26.407Z,59.20
2018-07-24T21:59:04.175Z,65.70
2018-07-24T22:01:39.119Z,67.80
2018-07-24T22:04:07.549Z,69.40
2018-07-24T22:06:35.656Z,71.10
2018-07-24T22:09:05.930Z,71.20
2018-07-24T22:11:33.739Z,71.80
2018-07-24T22:14:01.795Z,73.50
2018-07-24T22:16:29.621Z,74.80
2018-07-24T22:18:59.693Z,73.90
2018-07-24T22:21:31.506Z,74.20
2018-07-24T22:24:05.094Z,74.80
2018-07-24T22:26:33.992Z,75.90
2018-07-24T22:29:03.314Z,76.70
2018-07-24T22:31:33.373Z,77.60
2018-07-24T22:34:01.224Z,77.00
2018-07-24T22:36:29.023Z,77.00
2018-07-24T22:38:56.843Z,77.30
2018-07-24T22:41:24.643Z,77.80
2018-07-24T22:43:52.479Z,78.80
2018-07-24T22:46:20.343Z,79.00
2018-07-24T22:48:48.059Z,79.90
2018-07-24T22:51:15.868Z,80.60
2018-07-24T22:53:43.640Z,80.70
2018-07-24T22:56:11.566Z,80.50
2018-07-24T22:58:39.394Z,80.90
2018-07-24T23:01:07.154Z,80.80
2018-07-24T23:03:35.017Z,80.50
2018-07-24T23:06:02.837Z,80.40
2018-07-24T23:08:30.594Z,80.40
2018-07-24T23:10:58.436Z,80.30
2018-07-24T23:13:26.199Z,80.60
2018-07-24T23:15:54.031Z,79.90
2018-07-24T23:18:21.827Z,80.10
2018-07-24T23:23:17.304Z,80.00
2018-07-24T23:25:45.106Z,80.10
2018-07-24T23:28:12.883Z,79.70
2018-07-24T23:30:40.676Z,79.90
2018-07-24T23:33:08.535Z,80.00
2018-07-24T23:35:36.323Z,79.30
2018-07-24T23:38:04.707Z,79.80
2018-07-24T23:43:00.375Z,80.00
2018-07-24T23:45:28.187Z,79.40
2018-07-24T23:47:55.959Z,79.40
2018-07-24T23:50:23.732Z,79.80
2018-07-24T23:52:51.543Z,79.50
2018-07-24T23:55:19.374Z,79.70
2018-07-24T23:57:47.260Z,79.40
